Luis Neves

Recruteur en chef - Leixões
9 Déc 2027
Jeudi
Processus

Personnalité

Adaptabilité (2) Ambition (4) Controverse (17) Loyauté (16) Pression (6) Professionnalisme (19) Sportivité (4) Tempérament (9)

Profil

Style d'entraînement Démocratique
Diplôme National B
Détermination 5
Gestion des joueurs 12
Motivation 11
Discipline 9
Satisfaction professionnelle
100%
Fatigue
0%
Rôle Recruteur en chef
Salaire 79.0K p/s
Contrat 14.03.2030

Performance

Comportement Bon
Efficacité de l'entraînement
48%
Développement des joueurs
60%
Prévention des blessures
40%
Mise en place tactique
55%

Événements récents

A participé à une réunion de recrutement maintenant
A participé à une réunion de recrutement 7j
A recommandé une cible de transfert 7j
A recommandé une cible de transfert 7j
A participé à une réunion de recrutement 14j
A recommandé une cible de transfert 14j
A recommandé une cible de transfert 14j
A recommandé une cible de transfert 21j

Suivi en cours

116
Joueur Club Statut Capacité Confiance Observé Dernière observation Dernier vote
João Miguel Penafiel Perdu 108 / 99 69% 1 30.08.2027 Approuver
Rodrigo Martins Lusitânia Lourosa Perdu 110 / 115 69% 1 01.06.2027 -
Amar Memić Casa Pia Négociation 127 / 128 62% 1 01.01.2027 Approuver
Andreas Trimmel Red Bull Salzburg Actif 131 / 131 60% 1 01.01.2027 Approuver
Figueiredo Alverca Actif 122 / 131 40% 4 30.12.2026 -
Mohamed-Ali Cho Hull City Actif 125 / 139 40% 2 30.12.2026 -
Mathias Jørgensen Blackburn Rovers Actif 115 / 115 40% 1 29.12.2026 -
Lucas Di Yorio Santos Laguna Actif 123 / 108 40% 1 29.12.2026 -
Mohammed Bouldini Académico de Viseu Actif 123 / 112 40% 6 28.12.2026 -
Oli McBurnie Hull City Actif 137 / 127 40% 6 28.12.2026 -
Moussa Dembélé CR Belouizdad Actif 125 / 131 40% 2 28.12.2026 -
Tom Fellows Southampton Actif 132 / 124 40% 1 28.12.2026 -
Yousef Salech Cardiff City Actif 129 / 130 40% 3 25.12.2026 -
Mandla Mahlangu Ajax Cape Town Actif 105 / 100 40% 4 24.12.2026 -
Hicham Mahou Moreirense Actif 115 / 112 40% 1 24.12.2026 -
Hany Mukhtar Spezia Actif 135 / 133 40% 3 23.12.2026 -
Zian Flemming Ipswich Town Actif 125 / 135 40% 1 23.12.2026 -
Alfonso Trezza Arouca Actif 116 / 131 40% 2 22.12.2026 -
Martín Tejón Maritimo Actif 116 / 120 40% 1 22.12.2026 -
Nicolás Castro Toluca Actif 138 / 132 40% 1 22.12.2026 -
Jordan van der Gaag Leiria Actif 117 / 119 40% 1 22.12.2026 -
Finn Azaz Southampton Actif 135 / 132 40% 2 21.12.2026 -
Stanley Mills Oxford United Actif 122 / 120 40% 1 21.12.2026 -
Santi García Gil Vicente Actif 137 / 132 40% 1 21.12.2026 -
Ruben van Bommel Ferencvaros Actif 141 / 126 40% 2 18.12.2026 -
Bojan Radulović Huddersfield Town Actif 118 / 109 40% 1 18.12.2026 -
Juninho Pumas UNAM Actif 132 / 122 40% 6 16.12.2026 -
Tyrese Campbell Sheffield United Actif 133 / 126 40% 2 15.12.2026 -
Bertrand Traoré Sunderland Actif 132 / 129 40% 3 15.12.2026 -
Lewis Morgan SuperSport United Actif 123 / 117 40% 5 13.12.2026 -
Pablo Fernández Leiria Actif 120 / 118 40% 2 13.12.2026 -
Vinícius Lopes Santa Clara Actif 124 / 126 40% 1 13.12.2026 -
Héctor Hernández Gil Vicente Actif 123 / 130 40% 5 12.12.2026 -
John Kennedy Fluminense Actif 131 / 126 40% 1 11.12.2026 -
Callum O'Hare Sheffield United Actif 136 / 133 40% 2 10.12.2026 -
Aune Heggebø West Bromwich Albion Actif 127 / 124 40% 3 08.12.2026 -
Tomás González Piast Actif 114 / 123 40% 1 08.12.2026 -
Toni Fruk KV Mechelen Actif 129 / 130 40% 1 07.12.2026 -
Adnan Courtois KV Oostende Actif 131 / 131 40% 6 06.12.2026 -
Pau Víctor AVS Actif 143 / 141 40% 4 06.12.2026 -
Marezi Portsmouth Actif 116 / 117 40% 1 06.12.2026 -
André Silva Tondela Actif 121 / 132 40% 1 05.12.2026 -
Patrik Wålemark Lech Actif 126 / 129 40% 1 04.12.2026 -
Angelo Gattermayer Wolfsberger AC Actif 125 / 115 40% 1 04.12.2026 -
David Miculescu FCSB Actif 110 / 127 40% 1 02.12.2026 -
Ilyas Ansah Hull City Actif 136 / 125 40% 1 01.12.2026 -
Jhojan Julio Queretaro Actif 123 / 119 40% 2 30.11.2026 -
Ramiro Ruiz Rodríguez Atlético Tucumán Actif 117 / 109 40% 4 29.11.2026 -
Dávid Strelec Middlesbrough Actif 145 / 131 40% 1 29.11.2026 -
Edwar López Deportes Tolima Actif 121 / 120 40% 2 28.11.2026 -
Petar Musa Adana Demirspor Actif 148 / 148 40% 2 28.11.2026 -
Tom Cannon Sheffield United Actif 119 / 137 40% 2 26.11.2026 -
Gabriel Jesus Barcelona Actif 150 / 157 40% 5 23.11.2026 -
Luis Vázquez Birmingham Actif 137 / 134 40% 3 23.11.2026 -
Evidence Makgopa Orlando Pirates Actif 112 / 120 40% 1 21.11.2026 -
Manuel Ospina Cortulua Actif 124 / 137 40% 1 20.11.2026 -
Thorgan Witsel KV Oostende Actif 130 / 142 40% 1 20.11.2026 -
Santiago Simón Toluca Actif 126 / 122 40% 1 19.11.2026 -
Jackson Porozo Tijuana Actif 118 / 128 40% 1 19.11.2026 -
Márcio Mendes Pandurii Actif 110 / 115 40% 2 18.11.2026 -
Joe Gelhardt Hull City Actif 137 / 131 40% 1 18.11.2026 -
Kwame Poku Queens Park Rangers Actif 116 / 116 40% 1 18.11.2026 -
Makan Aïko Tondela Actif 122 / 127 40% 2 16.11.2026 -
Oswin Appollis Orlando Pirates Actif 122 / 114 40% 1 14.11.2026 -
Alejandro Melo Cibalia Actif 125 / 116 40% 3 12.11.2026 -
Jonás Acevedo Instituto Actif 114 / 119 40% 1 11.11.2026 -
Ola Brynhildsen Bodo/Glimt Actif 126 / 118 40% 1 11.11.2026 -
Zeki Amdouni Burnley Actif 136 / 133 40% 2 10.11.2026 -
Lorent Tolaj Plymouth Argyle Actif 111 / 118 40% 2 09.11.2026 -
Gianluca Prestianni Benfica Actif 133 / 141 40% 1 09.11.2026 -
Kyle Wootton Stockport County Actif 113 / 113 40% 1 08.11.2026 -
Jair Silva Leiria Actif 113 / 104 40% 1 08.11.2026 -
Mandla Erasmus SuperSport United Actif 128 / 127 40% 2 04.11.2026 -
Pedro Bondo Famalicao Actif 119 / 126 40% 1 04.11.2026 -
Renato Sanches AVS Actif 125 / 123 40% 1 04.11.2026 -
Atsuki Ito Bolton Wanderers Actif 123 / 129 40% 1 03.11.2026 -
Chuchu Ramírez Nacional Actif 124 / 129 40% 1 31.10.2026 -
Wessam Abou Ali Columbus Crew Actif 124 / 140 40% 5 29.10.2026 -
Tommy Conway Middlesbrough Actif 129 / 120 40% 1 29.10.2026 -
Jonás Luna Santa Clara Actif 122 / 113 40% 1 24.10.2026 -
Rafael Navarro St. Louis CITY SC Actif 121 / 125 40% 2 23.10.2026 -
Sead Hakšabanović Malmo FF Actif 122 / 127 40% 1 21.10.2026 -
Bénie Traoré New York City Actif 119 / 123 40% 2 19.10.2026 -
Kelvin Yeboah Minnesota United FC Actif 131 / 138 40% 2 16.10.2026 -
Dom Ballard Leyton Orient Actif 115 / 119 40% 1 16.10.2026 -
Kwadwo Baah Watford Actif 119 / 127 40% 1 14.10.2026 -
Ross Stewart Southampton Actif 130 / 132 40% 1 12.10.2026 -
Guilherme Ankaragucu Actif 120 / 116 40% 1 10.10.2026 -
Kévin Denkey FC Cincinnati Actif 123 / 131 40% 1 10.10.2026 -
Josh Sargent Toronto FC Actif 131 / 140 40% 2 09.10.2026 -
Dinis Pinto Moreirense Actif 126 / 130 40% 1 07.10.2026 -
Liam Kitching Coventry City Actif 119 / 128 40% 1 07.10.2026 -
Rômulo Tigres Actif 119 / 110 40% 1 07.10.2026 -
Leo Ceara Kashima Antlers Actif 150 / 145 40% 2 06.10.2026 -
Brandon Vázquez Austin FC Actif 134 / 110 40% 1 05.10.2026 -
Rodrigo Bogarín Barracas Central Actif 122 / 125 40% 1 05.10.2026 -
Tadeo Allende Inter Miami CF Actif 121 / 122 40% 1 02.10.2026 -
Theo Corbeanu Toronto FC Actif 123 / 132 40% 2 01.10.2026 -
Morgan Guilavogui Real Salt Lake Actif 127 / 131 40% 1 01.10.2026 -
Luca Martínez Dupuy Godoy Cruz Actif 126 / 120 40% 1 29.09.2026 -
Jordan Morris Seattle Sounders Actif 138 / 117 40% 1 29.09.2026 -
Agustín Módica Gimnasia y Esgrima Actif 130 / 122 40% 1 28.09.2026 -
Tomás Chancalay Minnesota United FC Actif 124 / 118 40% 1 28.09.2026 -
João Klauss LA Galaxy Actif 113 / 123 40% 1 27.09.2026 -
Mourad Tijuana Actif 109 / 107 40% 1 25.09.2026 -
Matías Sosa Arsenal Actif 112 / 108 40% 1 17.09.2026 -
Tomás Molina Argentinos Juniors Actif 119 / 124 40% 1 14.09.2026 -
Romelu Castagne KV Oostende Actif 135 / 137 40% 1 12.09.2026 -
Victor Olatunji Real Salt Lake Actif 116 / 104 40% 3 11.09.2026 -
Marcus Ingvartsen San Diego Football Club Actif 130 / 113 40% 1 11.09.2026 -
Agustín Paz Progreso Actif 123 / 108 40% 2 09.09.2026 -
Alonso Martínez New York City Actif 131 / 122 40% 1 09.09.2026 -
Fernando Mimbacas Juventud Actif 111 / 104 40% 1 09.09.2026 -
Juan Muñoz Leiria Actif 115 / 122 40% 1 07.09.2026 -
Lucas Carrizo Plaza Colonia Actif 124 / 117 40% 1 05.09.2026 -
Santiago Rodríguez Gimnasia y Esgrima Actif 118 / 109 40% 1 02.09.2026 -